PWSweather.com
Personal Weather Stations
Station Observations

SaroSE

Lat: 57.5222, Lon: 11.947

Elevation: 35

Station Type: Davis VP2

http://www.lokaltvader.se/

High Low Average
Temperature 61.9°F16.6°C 53.6°F12.0°C 57.0°F13.9°C
Dew Point 57.2°F14.0°C 49.8°F9.9°C 54.2°F12.3°C
Winds 19.6 mph 31.5 kmh Calm Calm 6.0 mph SSE9.7 kmh SSE
Wind Gusts 32.2 mph51.8 kmh -- 9.0 mph14.5 kmh
Humidity 98% 81% 91%
Pressure 30.04 in1017.3 mb 29.94 in1013.9 mb -
Precipitation 0.01 in0.3 mm - -
Hour Temp Dew Point Humidity Winds Wind Gusts Pressure Precip Precip Rate Daily Precip Total
12:00 AM 55.3°F12.9°C 54.5°F12.5°C 97% 6.9 mph S11.1 kmh S 9.2 mph14.8 kmh 30.02 in1016.6 mb - 0.00 in0.0 mm 0.00 in0.0 mm
12:15 AM 55.3°F12.9°C 54.5°F12.5°C 97% 3.5 mph SSE5.6 kmh SSE 6.9 mph11.1 kmh 30.02 in1016.6 mb - 0.00 in0.0 mm 0.00 in0.0 mm
12:30 AM 55.2°F12.9°C 54.4°F12.4°C 97% 3.5 mph S5.6 kmh S 4.6 mph7.4 kmh 30.02 in1016.6 mb - 0.00 in0.0 mm 0.00 in0.0 mm
12:45 AM 55.2°F12.9°C 54.4°F12.4°C 97% 3.5 mph S5.6 kmh S 4.6 mph7.4 kmh 30.02 in1016.6 mb - 0.00 in0.0 mm 0.00 in0.0 mm
01:00 AM 55.1°F12.8°C 54.3°F12.4°C 97% 5.8 mph S9.3 kmh S 6.9 mph11.1 kmh 30.01 in1016.3 mb - 0.00 in0.0 mm 0.00 in0.0 mm
01:15 AM 55.1°F12.8°C 54.3°F12.4°C 97% 4.6 mph SSW7.4 kmh SSW 5.8 mph9.3 kmh 30.01 in1016.3 mb - 0.00 in0.0 mm 0.00 in0.0 mm
01:30 AM 54.9°F12.7°C 54.1°F12.3°C 97% 5.8 mph S9.3 kmh S 6.9 mph11.1 kmh 30.01 in1016.3 mb - 0.00 in0.0 mm 0.00 in0.0 mm
01:45 AM 55.0°F12.8°C 54.2°F12.3°C 97% 4.6 mph S7.4 kmh S 8.1 mph13.0 kmh 30.01 in1016.3 mb - 0.00 in0.0 mm 0.00 in0.0 mm
02:00 AM 55.0°F12.8°C 54.2°F12.3°C 97% 4.6 mph S7.4 kmh S 6.9 mph11.1 kmh 30.01 in1016.3 mb - 0.00 in0.0 mm 0.00 in0.0 mm
02:15 AM 55.0°F12.8°C 54.2°F12.3°C 97% 1.2 mph SE1.9 kmh SE -- 30.00 in1015.9 mb - 0.00 in0.0 mm 0.00 in0.0 mm
02:30 AM 54.9°F12.7°C 54.1°F12.3°C 97% 1.2 mph SSE1.9 kmh SSE 3.5 mph5.6 kmh 30.00 in1015.9 mb - 0.00 in0.0 mm 0.00 in0.0 mm
02:45 AM 54.9°F12.7°C 54.1°F12.3°C 97% 4.6 mph SE7.4 kmh SE 6.9 mph11.1 kmh 30.00 in1015.9 mb - 0.00 in0.0 mm 0.00 in0.0 mm
03:00 AM 54.9°F12.7°C 54.1°F12.3°C 97% 4.6 mph SSE7.4 kmh SSE 6.9 mph11.1 kmh 30.00 in1015.9 mb - 0.00 in0.0 mm 0.00 in0.0 mm
03:15 AM 55.0°F12.8°C 54.2°F12.3°C 97% 5.8 mph SSE9.3 kmh SSE 8.1 mph13.0 kmh 30.00 in1015.9 mb - 0.00 in0.0 mm 0.00 in0.0 mm
03:30 AM 55.2°F12.9°C 54.4°F12.4°C 97% 4.6 mph S7.4 kmh S 9.2 mph14.8 kmh 30.00 in1015.9 mb - 0.00 in0.0 mm 0.00 in0.0 mm
03:45 AM 55.2°F12.9°C 54.6°F12.6°C 98% 4.6 mph SSE7.4 kmh SSE 5.8 mph9.3 kmh 29.99 in1015.6 mb - 0.00 in0.0 mm 0.00 in0.0 mm
04:00 AM 55.2°F12.9°C 54.6°F12.6°C 98% Calm Calm -- 29.99 in1015.6 mb - 0.00 in0.0 mm 0.00 in0.0 mm
04:15 AM 55.2°F12.9°C 54.6°F12.6°C 98% Calm Calm -- 29.99 in1015.6 mb - 0.00 in0.0 mm 0.00 in0.0 mm
04:30 AM 55.2°F12.9°C 54.6°F12.6°C 98% Calm Calm -- 29.99 in1015.6 mb - 0.00 in0.0 mm 0.00 in0.0 mm
04:45 AM 55.1°F12.8°C 54.5°F12.5°C 98% 4.6 mph SE7.4 kmh SE 6.9 mph11.1 kmh 29.98 in1015.2 mb - 0.00 in0.0 mm 0.00 in0.0 mm
05:00 AM 54.8°F12.7°C 54.3°F12.4°C 98% Calm Calm -- 29.98 in1015.2 mb - 0.00 in0.0 mm 0.00 in0.0 mm
05:15 AM 54.6°F12.6°C 54.0°F12.2°C 98% Calm Calm -- 29.98 in1015.2 mb - 0.00 in0.0 mm 0.00 in0.0 mm
05:30 AM 54.3°F12.4°C 53.7°F12.1°C 98% 5.8 mph SE9.3 kmh SE 6.9 mph11.1 kmh 29.98 in1015.2 mb - 0.00 in0.0 mm 0.00 in0.0 mm
05:45 AM 54.3°F12.4°C 53.7°F12.1°C 98% 4.6 mph SE7.4 kmh SE 4.6 mph7.4 kmh 29.98 in1015.2 mb - 0.00 in0.0 mm 0.00 in0.0 mm
06:00 AM 53.9°F12.2°C 53.3°F11.8°C 98% 5.8 mph SE9.3 kmh SE 6.9 mph11.1 kmh 29.98 in1015.2 mb - 0.00 in0.0 mm 0.00 in0.0 mm
06:15 AM 53.6°F12.0°C 53.1°F11.7°C 98% 4.6 mph SE7.4 kmh SE 5.8 mph9.3 kmh 29.97 in1014.9 mb - 0.00 in0.0 mm 0.00 in0.0 mm
06:30 AM 53.6°F12.0°C 53.0°F11.7°C 98% 3.5 mph ESE5.6 kmh ESE 6.9 mph11.1 kmh 29.97 in1014.9 mb - 0.00 in0.0 mm 0.00 in0.0 mm
06:45 AM 53.8°F12.1°C 53.2°F11.8°C 98% 4.6 mph SE7.4 kmh SE 8.1 mph13.0 kmh 29.97 in1014.9 mb - 0.00 in0.0 mm 0.00 in0.0 mm
07:00 AM 54.0°F12.2°C 53.4°F11.9°C 98% 4.6 mph ESE7.4 kmh ESE 6.9 mph11.1 kmh 29.97 in1014.9 mb - 0.00 in0.0 mm 0.00 in0.0 mm
07:15 AM 54.4°F12.4°C 53.8°F12.1°C 98% 6.9 mph SE11.1 kmh SE 9.2 mph14.8 kmh 29.97 in1014.9 mb - 0.00 in0.0 mm 0.00 in0.0 mm
07:30 AM 54.7°F12.6°C 54.1°F12.3°C 98% 5.8 mph SE9.3 kmh SE 8.1 mph13.0 kmh 29.98 in1015.2 mb - 0.00 in0.0 mm 0.00 in0.0 mm
07:45 AM 55.3°F12.9°C 54.7°F12.6°C 98% 4.6 mph SE7.4 kmh SE 8.1 mph13.0 kmh 29.98 in1015.2 mb - 0.00 in0.0 mm 0.00 in0.0 mm
08:00 AM 55.5°F13.1°C 55.0°F12.8°C 98% 4.6 mph SE7.4 kmh SE 6.9 mph11.1 kmh 29.97 in1014.9 mb - 0.00 in0.0 mm 0.00 in0.0 mm
08:15 AM 55.6°F13.1°C 55.0°F12.8°C 98% 2.3 mph SE3.7 kmh SE 9.2 mph14.8 kmh 29.98 in1015.2 mb - 0.00 in0.0 mm 0.00 in0.0 mm
08:30 AM 55.8°F13.2°C 55.2°F12.9°C 98% 5.8 mph ESE9.3 kmh ESE 6.9 mph11.1 kmh 29.97 in1014.9 mb - 0.00 in0.0 mm 0.00 in0.0 mm
08:45 AM 56.0°F13.3°C 55.4°F13.0°C 98% 2.3 mph ESE3.7 kmh ESE 5.8 mph9.3 kmh 29.97 in1014.9 mb - 0.00 in0.0 mm 0.00 in0.0 mm
09:00 AM 56.1°F13.4°C 55.5°F13.1°C 98% 6.9 mph SE11.1 kmh SE 9.2 mph14.8 kmh 29.97 in1014.9 mb - 0.00 in0.0 mm 0.00 in0.0 mm
09:15 AM 56.3°F13.5°C 55.8°F13.2°C 98% 6.9 mph SE11.1 kmh SE 9.2 mph14.8 kmh 29.98 in1015.2 mb - 0.00 in0.0 mm 0.00 in0.0 mm
09:30 AM 56.8°F13.8°C 56.0°F13.3°C 97% 2.3 mph SSE3.7 kmh SSE 5.8 mph9.3 kmh 29.98 in1015.2 mb - 0.01 in0.3 mm 0.01 in0.3 mm
09:45 AM 57.1°F13.9°C 56.2°F13.4°C 97% 5.8 mph SE9.3 kmh SE 6.9 mph11.1 kmh 29.98 in1015.2 mb - 0.01 in0.3 mm 0.01 in0.3 mm
10:00 AM 57.8°F14.3°C 56.4°F13.6°C 95% 3.5 mph S5.6 kmh S 5.8 mph9.3 kmh 29.97 in1014.9 mb - 0.01 in0.3 mm 0.01 in0.3 mm
10:15 AM 58.2°F14.6°C 56.5°F13.6°C 94% Calm Calm -- 29.98 in1015.2 mb - 0.01 in0.3 mm 0.01 in0.3 mm
10:30 AM 58.9°F14.9°C 57.2°F14.0°C 94% Calm Calm -- 29.97 in1014.9 mb - 0.00 in0.0 mm 0.01 in0.3 mm
10:45 AM 59.1°F15.1°C 56.5°F13.6°C 91% 1.2 mph WSW1.9 kmh WSW 1.2 mph1.9 kmh 29.98 in1015.2 mb - 0.00 in0.0 mm 0.01 in0.3 mm
11:00 AM 59.4°F15.2°C 56.5°F13.6°C 90% 3.5 mph WSW5.6 kmh WSW 6.9 mph11.1 kmh 29.97 in1014.9 mb - 0.00 in0.0 mm 0.01 in0.3 mm
11:15 AM 59.0°F15.0°C 55.8°F13.2°C 89% 9.2 mph WSW14.8 kmh WSW 10.4 mph16.7 kmh 29.97 in1014.9 mb - 0.00 in0.0 mm 0.01 in0.3 mm
11:30 AM 59.2°F15.1°C 55.6°F13.1°C 88% 6.9 mph WSW11.1 kmh WSW 9.2 mph14.8 kmh 29.96 in1014.6 mb - 0.00 in0.0 mm 0.01 in0.3 mm
11:45 AM 59.5°F15.3°C 55.9°F13.3°C 88% 10.4 mph WSW16.7 kmh WSW 11.5 mph18.5 kmh 29.96 in1014.6 mb - 0.00 in0.0 mm 0.01 in0.3 mm
12:00 PM 59.2°F15.1°C 55.1°F12.8°C 86% 10.4 mph WSW16.7 kmh WSW 11.5 mph18.5 kmh 29.96 in1014.6 mb - 0.00 in0.0 mm 0.01 in0.3 mm
12:15 PM 59.6°F15.3°C 55.0°F12.8°C 85% 11.5 mph SW18.5 kmh SW 11.5 mph18.5 kmh 29.97 in1014.9 mb - 0.00 in0.0 mm 0.01 in0.3 mm
12:30 PM 59.2°F15.1°C 54.7°F12.6°C 85% 8.1 mph SW13.0 kmh SW 9.2 mph14.8 kmh 29.96 in1014.6 mb - 0.00 in0.0 mm 0.01 in0.3 mm
12:45 PM 59.0°F15.0°C 54.5°F12.5°C 85% 4.6 mph W7.4 kmh W 5.8 mph9.3 kmh 29.96 in1014.6 mb - 0.00 in0.0 mm 0.01 in0.3 mm
01:00 PM 58.3°F14.6°C 54.1°F12.3°C 86% 4.6 mph WSW7.4 kmh WSW 6.9 mph11.1 kmh 29.96 in1014.6 mb - 0.00 in0.0 mm 0.01 in0.3 mm
01:15 PM 58.7°F14.8°C 54.8°F12.7°C 87% 4.6 mph W7.4 kmh W 6.9 mph11.1 kmh 29.96 in1014.6 mb - 0.00 in0.0 mm 0.01 in0.3 mm
01:30 PM 59.5°F15.3°C 55.3°F12.9°C 86% 3.5 mph SW5.6 kmh SW 4.6 mph7.4 kmh 29.96 in1014.6 mb - 0.00 in0.0 mm 0.01 in0.3 mm
01:45 PM 60.1°F15.6°C 54.9°F12.7°C 83% 4.6 mph WSW7.4 kmh WSW 6.9 mph11.1 kmh 29.96 in1014.6 mb - 0.00 in0.0 mm 0.01 in0.3 mm
02:00 PM 60.0°F15.6°C 54.8°F12.7°C 83% Calm Calm -- 29.96 in1014.6 mb - 0.00 in0.0 mm 0.01 in0.3 mm
02:15 PM 59.9°F15.5°C 54.7°F12.6°C 83% Calm Calm -- 29.95 in1014.2 mb - 0.00 in0.0 mm 0.01 in0.3 mm
02:30 PM 60.0°F15.6°C 54.8°F12.7°C 83% Calm Calm -- 29.95 in1014.2 mb - 0.00 in0.0 mm 0.01 in0.3 mm
02:45 PM 60.7°F15.9°C 55.5°F13.1°C 83% Calm Calm -- 29.95 in1014.2 mb - 0.00 in0.0 mm 0.01 in0.3 mm
03:00 PM 61.1°F16.2°C 55.6°F13.1°C 82% 3.5 mph NW5.6 kmh NW 3.5 mph5.6 kmh 29.95 in1014.2 mb - 0.00 in0.0 mm 0.01 in0.3 mm
03:15 PM 61.9°F16.6°C 56.3°F13.5°C 82% Calm Calm -- 29.95 in1014.2 mb - 0.00 in0.0 mm 0.01 in0.3 mm
03:30 PM 60.8°F16.0°C 55.3°F12.9°C 82% Calm Calm -- 29.95 in1014.2 mb - 0.00 in0.0 mm 0.01 in0.3 mm
03:45 PM 60.6°F15.9°C 55.7°F13.2°C 84% 1.2 mph WSW1.9 kmh WSW 3.5 mph5.6 kmh 29.95 in1014.2 mb - 0.00 in0.0 mm 0.01 in0.3 mm
04:00 PM 61.2°F16.2°C 56.0°F13.3°C 83% Calm Calm -- 29.95 in1014.2 mb - 0.00 in0.0 mm 0.01 in0.3 mm
04:15 PM 61.8°F16.6°C 56.2°F13.4°C 82% 4.6 mph ESE7.4 kmh ESE 10.4 mph16.7 kmh 29.95 in1014.2 mb - 0.00 in0.0 mm 0.01 in0.3 mm
04:30 PM 61.1°F16.2°C 55.6°F13.1°C 82% Calm Calm -- 29.95 in1014.2 mb - 0.00 in0.0 mm 0.01 in0.3 mm
04:45 PM 60.5°F15.8°C 55.6°F13.1°C 84% 8.1 mph ESE13.0 kmh ESE 10.4 mph16.7 kmh 29.95 in1014.2 mb - 0.00 in0.0 mm 0.01 in0.3 mm
05:00 PM 61.0°F16.1°C 55.1°F12.8°C 81% 6.9 mph ESE11.1 kmh ESE 8.1 mph13.0 kmh 29.95 in1014.2 mb - 0.00 in0.0 mm 0.01 in0.3 mm
05:15 PM 61.2°F16.2°C 55.3°F12.9°C 81% 6.9 mph E11.1 kmh E 8.1 mph13.0 kmh 29.95 in1014.2 mb - 0.00 in0.0 mm 0.01 in0.3 mm
05:30 PM 61.2°F16.2°C 55.3°F12.9°C 81% 2.3 mph E3.7 kmh E 8.1 mph13.0 kmh 29.94 in1013.9 mb - 0.00 in0.0 mm 0.01 in0.3 mm
05:45 PM 61.0°F16.1°C 55.1°F12.8°C 81% 2.3 mph E3.7 kmh E 3.5 mph5.6 kmh 29.95 in1014.2 mb - 0.00 in0.0 mm 0.01 in0.3 mm
06:00 PM 60.6°F15.9°C 55.1°F12.8°C 82% 1.2 mph E1.9 kmh E 3.5 mph5.6 kmh 29.95 in1014.2 mb - 0.00 in0.0 mm 0.01 in0.3 mm
06:15 PM 59.3°F15.2°C 54.1°F12.3°C 83% 3.5 mph ENE5.6 kmh ENE 4.6 mph7.4 kmh 29.95 in1014.2 mb - 0.00 in0.0 mm 0.01 in0.3 mm
06:30 PM 58.2°F14.6°C 53.7°F12.1°C 85% Calm Calm 2.3 mph3.7 kmh 29.95 in1014.2 mb - 0.00 in0.0 mm 0.01 in0.3 mm
06:45 PM 57.0°F13.9°C 53.2°F11.8°C 87% 3.5 mph ENE5.6 kmh ENE 5.8 mph9.3 kmh 29.95 in1014.2 mb - 0.00 in0.0 mm 0.01 in0.3 mm
07:00 PM 56.0°F13.3°C 52.5°F11.4°C 88% 1.2 mph ENE1.9 kmh ENE 4.6 mph7.4 kmh 29.95 in1014.2 mb - 0.00 in0.0 mm 0.01 in0.3 mm
07:15 PM 55.9°F13.3°C 53.1°F11.7°C 90% 3.5 mph ENE5.6 kmh ENE 5.8 mph9.3 kmh 29.95 in1014.2 mb - 0.00 in0.0 mm 0.01 in0.3 mm
07:30 PM 56.2°F13.4°C 53.6°F12.0°C 91% 3.5 mph E5.6 kmh E 8.1 mph13.0 kmh 29.96 in1014.6 mb - 0.00 in0.0 mm 0.01 in0.3 mm
07:45 PM 57.0°F13.9°C 54.7°F12.6°C 92% 9.2 mph E14.8 kmh E 15.0 mph24.1 kmh 29.96 in1014.6 mb - 0.00 in0.0 mm 0.01 in0.3 mm
08:00 PM 59.0°F15.0°C 55.4°F13.0°C 88% 16.1 mph ESE25.9 kmh ESE 27.6 mph44.4 kmh 29.96 in1014.6 mb - 0.00 in0.0 mm 0.01 in0.3 mm
08:15 PM 59.0°F15.0°C 54.8°F12.7°C 86% 12.7 mph ESE20.4 kmh ESE 19.6 mph31.5 kmh 29.97 in1014.9 mb - 0.00 in0.0 mm 0.01 in0.3 mm
08:30 PM 58.2°F14.6°C 53.7°F12.1°C 85% 19.6 mph ESE31.5 kmh ESE 25.3 mph40.7 kmh 29.98 in1015.2 mb - 0.00 in0.0 mm 0.01 in0.3 mm
08:45 PM 57.3°F14.1°C 52.1°F11.2°C 83% 19.6 mph E31.5 kmh E 32.2 mph51.8 kmh 29.99 in1015.6 mb - 0.00 in0.0 mm 0.01 in0.3 mm
09:00 PM 56.2°F13.4°C 51.4°F10.8°C 84% 16.1 mph E25.9 kmh E 26.5 mph42.6 kmh 29.99 in1015.6 mb - 0.00 in0.0 mm 0.01 in0.3 mm
09:15 PM 55.5°F13.1°C 50.8°F10.4°C 84% 15.0 mph ESE24.1 kmh ESE 21.9 mph35.2 kmh 30.00 in1015.9 mb - 0.00 in0.0 mm 0.01 in0.3 mm
09:30 PM 55.1°F12.8°C 50.4°F10.2°C 84% 19.6 mph ESE31.5 kmh ESE 29.9 mph48.1 kmh 30.00 in1015.9 mb - 0.00 in0.0 mm 0.01 in0.3 mm
09:45 PM 54.7°F12.6°C 50.0°F10.0°C 84% 16.1 mph ESE25.9 kmh ESE 21.9 mph35.2 kmh 30.00 in1015.9 mb - 0.00 in0.0 mm 0.01 in0.3 mm
10:00 PM 54.5°F12.5°C 50.0°F10.0°C 85% 17.3 mph ESE27.8 kmh ESE 24.2 mph38.9 kmh 30.01 in1016.3 mb - 0.00 in0.0 mm 0.01 in0.3 mm
10:15 PM 54.2°F12.3°C 49.8°F9.9°C 85% 19.6 mph ESE31.5 kmh ESE 20.7 mph33.3 kmh 30.02 in1016.6 mb - 0.00 in0.0 mm 0.01 in0.3 mm
10:30 PM 54.2°F12.3°C 49.8°F9.9°C 85% 12.7 mph ESE20.4 kmh ESE 18.4 mph29.6 kmh 30.02 in1016.6 mb - 0.00 in0.0 mm 0.01 in0.3 mm
10:45 PM 54.2°F12.3°C 49.8°F9.9°C 85% 13.8 mph ESE22.2 kmh ESE 19.6 mph31.5 kmh 30.03 in1016.9 mb - 0.00 in0.0 mm 0.01 in0.3 mm
11:00 PM 54.4°F12.4°C 49.9°F9.9°C 85% 17.3 mph ESE27.8 kmh ESE 21.9 mph35.2 kmh 30.04 in1017.3 mb - 0.00 in0.0 mm 0.04 in1.0 mm
11:15 PM 54.8°F12.7°C 50.7°F10.4°C 86% 10.4 mph ESE16.7 kmh ESE 19.6 mph31.5 kmh 30.04 in1017.3 mb - 0.00 in0.0 mm 0.04 in1.0 mm
11:30 PM 55.2°F12.9°C 50.8°F10.4°C 85% 15.0 mph ESE24.1 kmh ESE 26.5 mph42.6 kmh 30.04 in1017.3 mb - 0.00 in0.0 mm 0.04 in1.0 mm
11:45 PM 55.5°F13.1°C 51.1°F10.6°C 85% 11.5 mph ESE18.5 kmh ESE 13.8 mph22.2 kmh 30.04 in1017.3 mb - 0.00 in0.0 mm 0.04 in1.0 mm